Current Weather

Ronald Reagan Washington Ntl

Washington, Virginia (KDCA)

Report from: Sunday, November 27, 2022 2:52 AM EST
Current time: Sunday, November 27, 2022 3:15 AM EST

Nearby weather
Weather history
Weather forecast

Temperature9.4°C (48.9°F)
Dew point2.8°C (37.0°F)
Winds Calm
Visibility10 mi. (16.1 km)
Clouds Ceiling: Overcast 22,000 ft. (6,706 m)
Altimeter29.96 in.Hg (1015 mB)
Relative humidity63 %
Density altitude-603 ft. (-184 m)
Sea-level pressure101.5 kPa (1015 mB, 29.96 in.Hg)
Remarks System requires maintenance
Automated weather observing station with precipitation discriminator
Flight conditions Visual Meteorological Conditions
Raw dataKDCA 270752Z 00000KT 10SM OVC220 09/03 A2996 RMK AO2 SLP145 T00940028 $
An error has occurred. This application may no longer respond until reloaded. Reload 🗙